createdAt,value
2023-06-04T00:00:16.312Z,15.15
2023-06-04T00:02:44.305Z,12.25
2023-06-04T00:05:12.403Z,16.45
2023-06-04T00:07:41.740Z,13.20
2023-06-04T00:10:10.556Z,9.82
2023-06-04T00:12:38.553Z,14.80
2023-06-04T00:15:07.641Z,11.48
2023-06-04T00:17:35.612Z,12.18
2023-06-04T00:20:03.639Z,12.35
2023-06-04T00:22:31.584Z,12.00
2023-06-04T00:25:00.908Z,12.25
2023-06-04T00:27:28.875Z,11.55
2023-06-04T00:29:56.844Z,12.27
2023-06-04T00:32:24.884Z,12.50
2023-06-04T00:34:53.493Z,9.68
2023-06-04T00:37:21.606Z,12.48
2023-06-04T00:39:49.609Z,15.52
2023-06-04T00:42:18.913Z,14.43
2023-06-04T00:44:47.003Z,17.55
2023-06-04T00:47:15.069Z,10.73
2023-06-04T00:49:43.595Z,11.02
2023-06-04T00:52:11.702Z,14.40
2023-06-04T00:54:39.975Z,13.38
2023-06-04T00:57:09.756Z,11.98
2023-06-04T00:59:40.047Z,12.27
2023-06-04T01:02:10.974Z,12.43
2023-06-04T01:04:43.644Z,10.25
2023-06-04T01:07:13.568Z,12.32
2023-06-04T01:09:41.743Z,12.63
2023-06-04T01:12:11.138Z,11.25
2023-06-04T01:14:40.470Z,11.02
2023-06-04T01:17:12.260Z,11.27
2023-06-04T01:20:00.765Z,9.85
2023-06-04T01:22:34.707Z,11.07
2023-06-04T01:25:05.754Z,11.30
2023-06-04T01:27:36.454Z,8.82
2023-06-04T01:30:06.682Z,10.32
2023-06-04T01:32:34.641Z,10.00
2023-06-04T01:35:02.672Z,10.05
2023-06-04T01:37:30.644Z,10.40
2023-06-04T01:39:58.646Z,10.10
2023-06-04T01:42:26.604Z,9.77
2023-06-04T01:44:54.540Z,10.80
2023-06-04T01:47:23.977Z,10.00
2023-06-04T01:49:51.982Z,10.80
2023-06-04T01:52:22.078Z,12.65
2023-06-04T01:54:53.553Z,10.25
2023-06-04T01:57:21.811Z,9.73
2023-06-04T01:59:49.810Z,11.07
2023-06-04T02:02:17.781Z,9.98
2023-06-04T02:04:47.870Z,9.45
2023-06-04T02:07:18.772Z,9.07
2023-06-04T02:09:47.007Z,11.75
2023-06-04T02:12:14.947Z,12.35
2023-06-04T02:14:43.922Z,9.40
2023-06-04T02:17:13.569Z,10.30
2023-06-04T02:19:46.042Z,10.90
2023-06-04T02:22:15.672Z,9.88
2023-06-04T02:24:44.076Z,8.20
2023-06-04T02:27:12.074Z,10.75
2023-06-04T02:29:40.154Z,10.90
2023-06-04T02:32:09.240Z,13.20
2023-06-04T02:34:37.318Z,10.00
2023-06-04T02:37:05.718Z,9.73
2023-06-04T02:39:35.187Z,12.57
2023-06-04T02:42:03.118Z,11.25
2023-06-04T02:44:31.611Z,10.05
2023-06-04T02:46:59.616Z,9.15
2023-06-04T02:49:27.561Z,8.75
2023-06-04T02:51:55.534Z,9.85
2023-06-04T02:54:24.412Z,8.05
2023-06-04T02:56:54.462Z,9.30
2023-06-04T02:59:22.587Z,8.85
2023-06-04T03:01:50.620Z,8.23
2023-06-04T03:04:18.812Z,8.05
2023-06-04T03:06:47.394Z,13.27
2023-06-04T03:09:15.572Z,7.15
2023-06-04T03:11:43.553Z,9.75
2023-06-04T03:14:12.848Z,11.73
2023-06-04T03:16:40.941Z,9.20
2023-06-04T03:19:09.589Z,11.63
2023-06-04T03:21:40.781Z,8.40
2023-06-04T03:24:09.103Z,9.57
2023-06-04T03:26:37.114Z,12.32
2023-06-04T03:29:05.037Z,10.18
2023-06-04T03:31:34.511Z,10.73
2023-06-04T03:34:02.478Z,13.52
2023-06-04T03:36:32.937Z,9.18
2023-06-04T03:39:02.692Z,9.45
2023-06-04T03:41:30.744Z,8.13
2023-06-04T03:43:59.138Z,7.63
2023-06-04T03:46:29.863Z,9.35
2023-06-04T03:49:00.436Z,9.73
2023-06-04T03:51:30.517Z,8.20
2023-06-04T03:53:59.837Z,10.68
2023-06-04T03:56:28.475Z,9.68
2023-06-04T03:58:57.576Z,8.65
2023-06-04T04:01:25.749Z,12.50
2023-06-04T04:03:54.174Z,10.60
2023-06-04T04:06:23.614Z,10.00
2023-06-04T04:08:51.593Z,9.45
2023-06-04T04:11:22.896Z,8.27
2023-06-04T04:13:51.754Z,8.30
2023-06-04T04:16:21.772Z,9.65
2023-06-04T04:18:49.754Z,7.15
2023-06-04T04:21:18.112Z,7.15
2023-06-04T04:23:49.161Z,12.40
2023-06-04T04:26:18.176Z,8.00
2023-06-04T04:28:49.162Z,9.10
2023-06-04T04:31:18.738Z,9.88
2023-06-04T04:33:47.653Z,9.05
2023-06-04T04:36:15.818Z,27.33
2023-06-04T04:38:55.409Z,9.65
2023-06-04T04:41:27.173Z,7.22
2023-06-04T04:43:56.424Z,7.63
2023-06-04T04:46:28.990Z,8.95
2023-06-04T04:48:57.413Z,8.10
2023-06-04T04:51:25.392Z,8.52
2023-06-04T04:53:56.192Z,7.97
2023-06-04T04:56:27.516Z,7.88
2023-06-04T04:58:55.842Z,7.95
2023-06-04T05:01:25.051Z,6.90
2023-06-04T05:03:53.028Z,8.20
2023-06-04T05:06:21.960Z,6.70
2023-06-04T05:08:50.253Z,7.45
2023-06-04T05:11:20.521Z,8.00
2023-06-04T05:13:49.506Z,6.57
2023-06-04T05:16:17.576Z,8.40
2023-06-04T05:18:46.480Z,8.35
2023-06-04T05:21:21.483Z,8.18
2023-06-04T05:23:55.736Z,7.30
2023-06-04T05:26:29.347Z,8.00
2023-06-04T05:29:00.947Z,7.90
2023-06-04T05:31:34.344Z,9.30
2023-06-04T05:34:02.983Z,7.63
2023-06-04T05:36:33.830Z,8.27
2023-06-04T05:39:05.305Z,9.27
2023-06-04T05:41:41.883Z,7.80
2023-06-04T05:44:09.942Z,7.43
2023-06-04T05:46:37.946Z,6.93
2023-06-04T05:49:06.361Z,6.55
2023-06-04T05:51:34.427Z,6.80
2023-06-04T05:54:02.733Z,6.13
2023-06-04T05:56:31.741Z,6.97
2023-06-04T05:59:03.327Z,7.47
2023-06-04T06:01:31.286Z,7.35
2023-06-04T06:03:59.315Z,8.68
2023-06-04T06:06:29.582Z,6.05
2023-06-04T06:08:59.119Z,7.05
2023-06-04T06:11:27.983Z,6.72
2023-06-04T06:13:56.523Z,8.38
2023-06-04T06:16:26.188Z,6.72
2023-06-04T06:18:54.994Z,7.82
2023-06-04T06:21:23.276Z,5.97
2023-06-04T06:23:51.332Z,7.53
2023-06-04T06:26:21.162Z,7.07
2023-06-04T06:28:53.255Z,5.70
2023-06-04T06:31:21.985Z,6.22
2023-06-04T06:33:51.411Z,5.45
2023-06-04T06:36:20.129Z,4.93
2023-06-04T06:38:48.407Z,9.43
2023-06-04T06:41:16.351Z,6.13
2023-06-04T06:43:44.318Z,6.82
2023-06-04T06:46:12.389Z,6.15
2023-06-04T06:48:40.641Z,6.68
2023-06-04T06:51:09.997Z,5.80
2023-06-04T06:53:37.946Z,6.03
2023-06-04T06:56:05.966Z,5.60
2023-06-04T06:58:33.941Z,5.57
2023-06-04T07:01:01.963Z,8.10
2023-06-04T07:03:30.037Z,5.78
2023-06-04T07:05:58.010Z,6.72
2023-06-04T07:08:27.309Z,6.63
2023-06-04T07:10:55.282Z,6.78
2023-06-04T07:13:23.257Z,5.00
2023-06-04T07:15:51.329Z,5.70
2023-06-04T07:18:19.515Z,7.43
2023-06-04T07:20:47.588Z,7.65
2023-06-04T07:23:15.602Z,6.80
2023-06-04T07:25:45.086Z,5.88
2023-06-04T07:28:13.224Z,7.50
2023-06-04T07:30:41.304Z,6.82
2023-06-04T07:33:09.302Z,6.65
2023-06-04T07:35:37.334Z,9.80
2023-06-04T07:38:05.533Z,7.95
2023-06-04T07:40:33.574Z,14.95
2023-06-04T07:43:02.911Z,11.00
2023-06-04T07:45:34.911Z,6.53
2023-06-04T07:48:04.105Z,4.72
2023-06-04T07:50:35.808Z,8.88
2023-06-04T07:53:04.555Z,5.63
2023-06-04T07:55:33.020Z,7.85
2023-06-04T07:58:03.691Z,8.25
2023-06-04T08:00:33.812Z,5.80
2023-06-04T08:03:01.935Z,5.30
2023-06-04T08:05:29.970Z,5.25
2023-06-04T08:07:57.931Z,7.10
2023-06-04T08:10:25.985Z,4.75
2023-06-04T08:12:53.987Z,8.85
2023-06-04T08:15:23.303Z,5.30
2023-06-04T08:17:51.330Z,5.88
2023-06-04T08:20:19.597Z,8.13
2023-06-04T08:22:47.586Z,7.90
2023-06-04T08:25:16.392Z,11.95
2023-06-04T08:27:44.632Z,10.23
2023-06-04T08:30:13.293Z,4.55
2023-06-04T08:32:42.691Z,8.55
2023-06-04T08:35:11.143Z,5.43
2023-06-04T08:37:39.173Z,9.70
2023-06-04T08:40:09.866Z,4.93
2023-06-04T08:42:42.726Z,4.60
2023-06-04T08:45:12.846Z,5.53
2023-06-04T08:47:43.017Z,4.43
2023-06-04T08:50:11.994Z,4.05
2023-06-04T08:52:40.257Z,19.92
2023-06-04T08:55:08.860Z,39.03
2023-06-04T08:57:36.875Z,39.78
2023-06-04T09:00:08.353Z,55.20
2023-06-04T09:02:37.138Z,41.35
2023-06-04T09:05:08.355Z,48.70
2023-06-04T09:07:37.692Z,46.70
2023-06-04T09:10:13.543Z,38.65
2023-06-04T09:12:43.689Z,39.25
2023-06-04T09:15:12.067Z,39.90
2023-06-04T09:17:41.146Z,35.70
2023-06-04T09:20:20.055Z,31.77
2023-06-04T09:22:48.083Z,38.03
2023-06-04T09:25:27.258Z,29.17
2023-06-04T09:27:59.595Z,25.70
2023-06-04T09:30:27.693Z,27.48
2023-06-04T09:32:55.979Z,34.25
2023-06-04T09:35:26.233Z,30.00
2023-06-04T09:37:55.169Z,26.40
2023-06-04T09:40:23.265Z,30.20
2023-06-04T09:42:55.537Z,25.27
2023-06-04T09:45:33.589Z,24.70
2023-06-04T09:48:01.977Z,21.88
2023-06-04T09:50:32.176Z,60.88
2023-06-04T09:53:00.255Z,81.47
2023-06-04T09:55:28.409Z,32.67
2023-06-04T09:57:56.419Z,24.58
2023-06-04T10:00:25.930Z,43.35
2023-06-04T10:02:58.084Z,47.05
2023-06-04T10:05:26.348Z,52.08
2023-06-04T10:07:55.655Z,54.38
2023-06-04T10:10:25.380Z,51.13
2023-06-04T10:12:56.094Z,50.10
2023-06-04T10:15:24.078Z,55.78
2023-06-04T10:17:52.095Z,54.35
2023-06-04T10:20:21.579Z,42.65
2023-06-04T10:22:49.672Z,43.35
2023-06-04T10:25:19.513Z,43.38
2023-06-04T10:27:47.518Z,50.08
2023-06-04T10:30:15.752Z,36.20
2023-06-04T10:32:43.848Z,38.08
2023-06-04T10:38:07.997Z,43.92
2023-06-04T10:40:37.352Z,30.23
2023-06-04T10:43:08.321Z,30.38
2023-06-04T10:45:36.542Z,31.10
2023-06-04T10:48:04.877Z,36.00
2023-06-04T10:50:33.625Z,21.35
2023-06-04T10:53:04.024Z,25.63
2023-06-04T10:55:32.929Z,20.40
2023-06-04T10:58:03.079Z,19.70
2023-06-04T11:00:37.845Z,23.33
2023-06-04T11:03:09.410Z,29.58
2023-06-04T11:05:37.982Z,17.58
2023-06-04T11:08:06.227Z,24.17
2023-06-04T11:10:35.526Z,24.83
2023-06-04T11:13:06.121Z,26.15
2023-06-04T11:15:42.578Z,20.05
2023-06-04T11:18:11.162Z,20.75
2023-06-04T11:20:39.221Z,32.03
2023-06-04T11:23:07.181Z,16.83
2023-06-04T11:25:35.444Z,14.30
2023-06-04T11:28:04.843Z,19.23
2023-06-04T11:30:32.794Z,15.18
2023-06-04T11:33:04.367Z,16.23
2023-06-04T11:35:32.619Z,20.63
2023-06-04T11:38:00.683Z,13.77
2023-06-04T11:40:28.975Z,16.88
2023-06-04T11:42:57.036Z,12.93
2023-06-04T11:45:26.748Z,11.15
2023-06-04T11:47:56.400Z,13.45
2023-06-04T11:50:25.019Z,15.57
2023-06-04T11:52:54.534Z,8.00
2023-06-04T11:55:22.728Z,10.40
2023-06-04T11:57:51.084Z,7.32
2023-06-04T12:00:20.366Z,8.77
2023-06-04T12:02:54.581Z,7.82
2023-06-04T12:05:24.992Z,8.23
2023-06-04T12:07:53.235Z,7.68
2023-06-04T12:10:21.268Z,7.90
2023-06-04T12:12:49.284Z,5.15
2023-06-04T12:15:21.324Z,8.38
2023-06-04T12:17:54.226Z,5.93
2023-06-04T12:20:34.324Z,3.47
2023-06-04T12:23:02.303Z,4.68
2023-06-04T12:25:31.127Z,6.38
2023-06-04T12:27:59.123Z,4.60
2023-06-04T12:30:37.494Z,6.22
2023-06-04T12:33:07.086Z,5.10
2023-06-04T12:35:35.574Z,4.65
2023-06-04T12:38:05.373Z,9.80
2023-06-04T12:40:33.513Z,3.33
2023-06-04T12:43:01.518Z,3.88
2023-06-04T12:45:30.287Z,2.97
2023-06-04T12:47:58.532Z,2.78
2023-06-04T12:50:27.907Z,9.40
2023-06-04T12:52:55.990Z,2.55
2023-06-04T12:55:25.221Z,1.85
2023-06-04T12:57:55.151Z,3.25
2023-06-04T13:00:23.388Z,6.28
2023-06-04T13:02:52.135Z,2.40
2023-06-04T13:05:20.255Z,3.10
2023-06-04T13:07:49.631Z,1.90
2023-06-04T13:10:17.624Z,2.65
2023-06-04T13:12:45.604Z,3.00
2023-06-04T13:15:13.544Z,3.22
2023-06-04T13:17:41.616Z,3.50
2023-06-04T13:20:12.497Z,4.10
2023-06-04T13:22:41.424Z,5.50
2023-06-04T13:25:11.302Z,6.35
2023-06-04T13:27:39.259Z,10.05
2023-06-04T13:30:08.406Z,7.05
2023-06-04T13:32:36.440Z,10.57
2023-06-04T13:35:04.714Z,26.10
2023-06-04T13:37:32.708Z,12.38
2023-06-04T13:40:01.002Z,15.32
2023-06-04T13:42:30.358Z,6.85
2023-06-04T13:44:58.480Z,11.00
2023-06-04T13:47:26.442Z,12.18
2023-06-04T13:49:54.466Z,12.20
2023-06-04T13:52:22.439Z,22.95
2023-06-04T13:54:50.626Z,6.50
2023-06-04T13:57:18.809Z,12.93
2023-06-04T13:59:48.180Z,10.50
2023-06-04T14:02:16.606Z,13.25
2023-06-04T14:04:44.672Z,21.05
2023-06-04T14:07:12.803Z,17.90
2023-06-04T14:09:41.102Z,20.10
2023-06-04T14:12:09.787Z,17.80
2023-06-04T14:14:38.299Z,16.73
2023-06-04T14:17:07.979Z,21.65
2023-06-04T14:19:35.970Z,23.23
2023-06-04T14:22:04.082Z,20.58
2023-06-04T14:24:32.562Z,26.42
2023-06-04T14:27:00.574Z,18.70
2023-06-04T14:29:28.512Z,15.15
2023-06-04T14:31:56.807Z,15.38
2023-06-04T14:34:26.145Z,14.95
2023-06-04T14:36:54.374Z,19.15
2023-06-04T14:39:23.102Z,12.40
2023-06-04T14:41:51.777Z,13.27
2023-06-04T14:44:19.790Z,11.45
2023-06-04T14:46:48.158Z,13.13
2023-06-04T14:49:16.476Z,12.10
2023-06-04T14:51:45.857Z,11.30
2023-06-04T14:54:13.904Z,12.15
2023-06-04T14:56:41.896Z,16.67
2023-06-04T14:59:12.376Z,11.68
2023-06-04T15:01:41.681Z,11.57
2023-06-04T15:04:10.062Z,8.73
2023-06-04T15:06:38.369Z,16.48
2023-06-04T15:09:07.696Z,8.32
2023-06-04T15:11:35.685Z,11.63
2023-06-04T15:14:03.918Z,8.13
2023-06-04T15:16:31.999Z,13.35
2023-06-04T15:19:00.085Z,9.07
2023-06-04T15:21:28.146Z,6.97
2023-06-04T15:23:56.230Z,7.15
2023-06-04T15:26:28.121Z,5.10
2023-06-04T15:28:57.265Z,6.45
2023-06-04T15:31:25.462Z,5.15
2023-06-04T15:33:53.487Z,11.10
2023-06-04T15:36:21.417Z,17.67
2023-06-04T15:38:50.593Z,3.47
2023-06-04T15:41:19.662Z,3.95
2023-06-04T15:43:49.412Z,15.15
2023-06-04T15:46:17.598Z,3.50
2023-06-04T15:48:45.849Z,8.25
2023-06-04T15:51:13.924Z,3.75
2023-06-04T15:53:41.996Z,6.82
2023-06-04T15:56:09.978Z,15.32
2023-06-04T15:58:37.977Z,7.45
2023-06-04T16:01:07.579Z,6.15
2023-06-04T16:03:36.177Z,4.38
2023-06-04T16:06:04.313Z,3.85
2023-06-04T16:08:32.308Z,5.60
2023-06-04T16:11:00.513Z,5.15
2023-06-04T16:13:28.527Z,3.58
2023-06-04T16:15:56.873Z,4.38
2023-06-04T16:18:26.585Z,6.57
2023-06-04T16:20:54.550Z,3.20
2023-06-04T16:23:22.616Z,3.70
2023-06-04T16:25:51.293Z,8.52
2023-06-04T16:28:19.495Z,7.57
2023-06-04T16:30:47.481Z,5.93
2023-06-04T16:33:15.490Z,11.40
2023-06-04T16:35:44.993Z,11.57
2023-06-04T16:38:12.990Z,4.63
2023-06-04T16:40:41.008Z,4.70
2023-06-04T16:43:08.937Z,4.15
2023-06-04T16:45:36.885Z,7.18
2023-06-04T16:48:05.176Z,4.63
2023-06-04T16:50:33.158Z,4.63
2023-06-04T16:53:02.551Z,4.70
2023-06-04T16:55:31.212Z,3.63
2023-06-04T16:58:12.579Z,2.35
2023-06-04T17:00:40.642Z,4.35
2023-06-04T17:03:08.799Z,3.08
2023-06-04T17:05:36.830Z,7.55
2023-06-04T17:08:06.316Z,3.15
2023-06-04T17:10:34.369Z,3.50
2023-06-04T17:13:02.351Z,4.20
2023-06-04T17:15:30.397Z,3.00
2023-06-04T17:18:01.320Z,5.47
2023-06-04T17:20:30.047Z,4.13
2023-06-04T17:22:59.971Z,5.85
2023-06-04T17:25:29.371Z,5.68
2023-06-04T17:27:57.528Z,3.92
2023-06-04T17:30:25.686Z,6.03
2023-06-04T17:32:53.712Z,7.35
2023-06-04T17:35:21.824Z,2.08
2023-06-04T17:37:50.984Z,5.80
2023-06-04T17:40:18.957Z,6.15
2023-06-04T17:42:48.347Z,9.60
2023-06-04T17:45:16.364Z,10.77
2023-06-04T17:47:44.457Z,12.18
2023-06-04T17:50:12.794Z,10.65
2023-06-04T17:52:41.021Z,7.03
2023-06-04T17:55:09.724Z,19.33
2023-06-04T17:57:37.695Z,10.38
2023-06-04T18:00:08.699Z,7.47
2023-06-04T18:02:42.584Z,6.35
2023-06-04T18:05:11.082Z,5.15
2023-06-04T18:07:39.220Z,5.38
2023-06-04T18:10:08.161Z,3.03
2023-06-04T18:12:36.708Z,5.65
2023-06-04T18:15:06.848Z,5.43
2023-06-04T18:17:35.366Z,3.50
2023-06-04T18:20:03.560Z,4.78
2023-06-04T18:22:31.564Z,4.80
2023-06-04T18:24:59.500Z,7.88
2023-06-04T18:27:28.700Z,4.00
2023-06-04T18:29:57.414Z,4.00
2023-06-04T18:32:26.784Z,4.47
2023-06-04T18:34:54.908Z,4.53
2023-06-04T18:37:26.430Z,4.47
2023-06-04T18:39:54.964Z,6.82
2023-06-04T18:42:30.895Z,2.50
2023-06-04T18:45:00.369Z,5.13
2023-06-04T18:47:30.031Z,5.55
2023-06-04T18:49:58.796Z,6.78
2023-06-04T18:52:26.914Z,3.88
2023-06-04T18:54:54.966Z,3.83
2023-06-04T18:57:23.017Z,8.07
2023-06-04T18:59:51.351Z,7.93
2023-06-04T19:02:19.404Z,9.10
2023-06-04T19:04:48.802Z,10.35
2023-06-04T19:07:16.843Z,11.23
2023-06-04T19:09:44.810Z,10.10
2023-06-04T19:12:12.834Z,7.05
2023-06-04T19:14:40.823Z,6.47
2023-06-04T19:17:09.241Z,6.93
2023-06-04T19:19:37.249Z,8.07
2023-06-04T19:22:06.685Z,7.68
2023-06-04T19:24:34.610Z,9.20
2023-06-04T19:27:02.647Z,7.38
2023-06-04T19:29:30.608Z,10.68
2023-06-04T19:31:58.769Z,7.22
2023-06-04T19:34:27.200Z,10.05
2023-06-04T19:36:55.311Z,11.98
2023-06-04T19:39:24.620Z,14.02
2023-06-04T19:41:52.575Z,7.45
2023-06-04T19:44:20.547Z,9.27
2023-06-04T19:46:49.481Z,8.95
2023-06-04T19:49:17.673Z,9.85
2023-06-04T19:51:45.631Z,13.60
2023-06-04T19:54:13.619Z,6.05
2023-06-04T19:56:43.450Z,8.88
2023-06-04T19:59:11.439Z,10.38
2023-06-04T20:01:39.557Z,8.45
2023-06-04T20:04:07.590Z,8.25
2023-06-04T20:06:35.918Z,5.65
2023-06-04T20:09:04.835Z,9.13
2023-06-04T20:11:33.578Z,5.80
2023-06-04T20:14:02.912Z,10.07
2023-06-04T20:16:31.023Z,9.68
2023-06-04T20:18:59.028Z,8.30
2023-06-04T20:21:33.623Z,6.45
2023-06-04T20:24:03.362Z,8.82
2023-06-04T20:26:31.359Z,6.40
2023-06-04T20:28:59.306Z,9.88
2023-06-04T20:31:28.939Z,9.55
2023-06-04T20:33:57.393Z,3.75
2023-06-04T20:36:25.533Z,9.40
2023-06-04T20:38:53.533Z,10.27
2023-06-04T20:41:22.395Z,10.30
2023-06-04T20:43:53.382Z,8.30
2023-06-04T20:46:21.520Z,9.48
2023-06-04T20:48:51.075Z,6.55
2023-06-04T20:51:19.136Z,10.60
2023-06-04T20:53:47.725Z,10.23
2023-06-04T20:56:15.810Z,7.97
2023-06-04T20:58:43.809Z,7.60
2023-06-04T21:01:12.848Z,4.03
2023-06-04T21:03:41.117Z,8.15
2023-06-04T21:06:10.894Z,6.20
2023-06-04T21:08:39.026Z,12.73
2023-06-04T21:11:07.190Z,19.60
2023-06-04T21:13:35.552Z,12.30
2023-06-04T21:16:03.561Z,14.57
2023-06-04T21:18:31.517Z,7.15
2023-06-04T21:20:59.505Z,7.68
2023-06-04T21:23:28.916Z,9.23
2023-06-04T21:25:56.974Z,4.03
2023-06-04T21:28:24.908Z,11.73
2023-06-04T21:30:52.900Z,9.25
2023-06-04T21:33:20.873Z,8.10
2023-06-04T21:35:49.097Z,12.95
2023-06-04T21:38:17.062Z,5.90
2023-06-04T21:40:46.344Z,10.18
2023-06-04T21:43:14.261Z,9.20
2023-06-04T21:45:42.648Z,7.35
2023-06-04T21:48:11.019Z,8.63
2023-06-04T21:50:39.186Z,4.78
2023-06-04T21:53:07.141Z,5.90
2023-06-04T21:55:36.955Z,9.20
2023-06-04T21:58:06.299Z,9.93
2023-06-04T22:00:34.251Z,5.13
2023-06-04T22:03:02.306Z,6.55
2023-06-04T22:05:30.356Z,7.15
2023-06-04T22:07:59.323Z,5.40
2023-06-04T22:10:27.309Z,11.38
2023-06-04T22:12:55.238Z,7.93
2023-06-04T22:15:24.632Z,5.70
2023-06-04T22:17:52.624Z,8.32
2023-06-04T22:20:20.820Z,3.20
2023-06-04T22:22:48.752Z,7.57
2023-06-04T22:25:17.252Z,7.43
2023-06-04T22:27:45.167Z,7.57
2023-06-04T22:30:13.707Z,9.63
2023-06-04T22:32:43.055Z,9.20
2023-06-04T22:35:13.497Z,7.93
2023-06-04T22:37:41.468Z,10.70
2023-06-04T22:40:10.073Z,6.82
2023-06-04T22:42:38.006Z,5.70
2023-06-04T22:45:06.729Z,7.47
2023-06-04T22:47:34.874Z,8.43
2023-06-04T22:50:04.294Z,9.27
2023-06-04T22:52:33.365Z,7.20
2023-06-04T22:55:02.130Z,5.95
2023-06-04T22:57:31.308Z,8.80
2023-06-04T22:59:59.289Z,9.25
2023-06-04T23:02:27.442Z,8.55
2023-06-04T23:04:56.260Z,14.55
2023-06-04T23:07:25.589Z,7.80
2023-06-04T23:09:53.520Z,10.40
2023-06-04T23:12:21.549Z,10.00
2023-06-04T23:14:49.525Z,11.30
2023-06-04T23:17:19.462Z,10.88
2023-06-04T23:19:47.452Z,10.60
2023-06-04T23:22:15.490Z,9.80
2023-06-04T23:24:44.799Z,7.85
2023-06-04T23:27:12.742Z,8.68
2023-06-04T23:29:40.738Z,13.45
2023-06-04T23:32:08.810Z,11.00
2023-06-04T23:34:37.023Z,15.13
2023-06-04T23:37:05.100Z,9.65
2023-06-04T23:39:33.038Z,8.32
2023-06-04T23:42:02.327Z,10.27
2023-06-04T23:44:30.262Z,7.65
2023-06-04T23:46:58.184Z,5.97
2023-06-04T23:49:26.159Z,12.45
2023-06-04T23:51:54.131Z,8.95
2023-06-04T23:54:22.082Z,6.20
2023-06-04T23:56:50.844Z,6.05
2023-06-04T23:59:20.161Z,8.38
